Terminal Aerodrome Forecast
Issued by NWS

Home | Current Version | Previous Version | Text Only | Print | Product List | Glossary Off
Versions: 1 2 3 4 5 6 7 8 9 10 11 12

000
FTUS45 KGGW 280524
TAFGDV
TAF
KGDV 280524Z 2806/2906 04009KT P6SM SCT100
     FM281200 02005KT P6SM BKN040
     FM282100 01006KT P6SM VCSH BKN050
     FM290300 28005KT P6SM SCT050=

USA.gov is the U.S. government's official web portal to all federal, state and local government web resources and services.